地図

経路データ

SID SEASON NUMBER BASIN SUBBASIN NAME ISO_TIME NATURE LAT LON WMO_WIND WMO_PRES WMO_AGENCY TRACK_TYPE DIST2LAND LANDFALL IFLAG USA_AGENCY USA_ATCF_ID USA_LAT USA_LON USA_RECORD USA_STATUS USA_WIND USA_PRES USA_SSHS USA_R34_NE USA_R34_SE USA_R34_SW USA_R34_NW USA_R50_NE USA_R50_SE USA_R50_SW USA_R50_NW USA_R64_NE USA_R64_SE USA_R64_SW USA_R64_NW USA_POCI USA_ROCI USA_RMW USA_EYE TOKYO_LAT TOKYO_LON TOKYO_GRADE TOKYO_WIND TOKYO_PRES TOKYO_R50_DIR TOKYO_R50_LONG TOKYO_R50_SHORT TOKYO_R30_DIR TOKYO_R30_LONG TOKYO_R30_SHORT TOKYO_LAND CMA_LAT CMA_LON CMA_CAT CMA_WIND CMA_PRES HKO_LAT HKO_LON HKO_CAT HKO_WIND HKO_PRES NEWDELHI_LAT NEWDELHI_LON NEWDELHI_GRADE NEWDELHI_WIND NEWDELHI_PRES NEWDELHI_CI NEWDELHI_DP NEWDELHI_POCI REUNION_LAT REUNION_LON REUNION_TYPE REUNION_WIND REUNION_PRES REUNION_TNUM REUNION_CI REUNION_RMW REUNION_R34_NE REUNION_R34_SE REUNION_R34_SW REUNION_R34_NW REUNION_R50_NE REUNION_R50_SE REUNION_R50_SW REUNION_R50_NW REUNION_R64_NE REUNION_R64_SE REUNION_R64_SW REUNION_R64_NW BOM_LAT BOM_LON BOM_TYPE BOM_WIND BOM_PRES BOM_TNUM BOM_CI BOM_RMW BOM_R34_NE BOM_R34_SE BOM_R34_SW BOM_R34_NW BOM_R50_NE BOM_R50_SE BOM_R50_SW BOM_R50_NW BOM_R64_NE BOM_R64_SE BOM_R64_SW BOM_R64_NW BOM_ROCI BOM_POCI BOM_EYE BOM_POS_METHOD BOM_PRES_METHOD NADI_LAT NADI_LON NADI_CAT NADI_WIND NADI_PRES WELLINGTON_LAT WELLINGTON_LON WELLINGTON_WIND WELLINGTON_PRES DS824_LAT DS824_LON DS824_STAGE DS824_WIND DS824_PRES TD9636_LAT TD9636_LON TD9636_STAGE TD9636_WIND TD9636_PRES TD9635_LAT TD9635_LON TD9635_WIND TD9635_PRES TD9635_ROCI NEUMANN_LAT NEUMANN_LON NEUMANN_CLASS NEUMANN_WIND NEUMANN_PRES MLC_LAT MLC_LON MLC_CLASS MLC_WIND MLC_PRES USA_GUST BOM_GUST BOM_GUST_PER REUNION_GUST REUNION_GUST_PER USA_SEAHGT USA_SEARAD_NE USA_SEARAD_SE USA_SEARAD_SW USA_SEARAD_NW STORM_SPEED STORM_DIR
1983193N11256 1983 33 EP MM ERICK 1983-07-12 06:00:00 TS 10.6000 -103.700 25 hurdat_epa main 800 800 O_________O___ hurdat_epa EP051983 10.6000 -103.700 TD 25 -1 10.6000 -103.700 1 25 8 278
1983193N11256 1983 33 EP MM ERICK 1983-07-12 09:00:00 TS 10.6546 -104.082 main 806 806 P_________P___ EP051983 10.6575 -104.080 TD 25 -1 10.6458 -104.087 1 25 8 277
1983193N11256 1983 33 EP MM ERICK 1983-07-12 12:00:00 TS 10.7000 -104.500 25 hurdat_epa main 824 824 O_________O___ hurdat_epa EP051983 10.7000 -104.500 TD 25 -1 10.7000 -104.500 1 25 9 275
1983193N11256 1983 33 EP MM ERICK 1983-07-12 15:00:00 TS 10.7385 -104.978 main 850 845 P_________P___ EP051983 10.7275 -104.985 TD 27 -1 10.7717 -104.958 1 27 10 277
1983193N11256 1983 33 EP MM ERICK 1983-07-12 18:00:00 TS 10.8179 -105.488 30 hurdat_epa main 863 856 O_________P___ hurdat_epa EP051983 10.8000 -105.500 TD 30 -1 10.8715 -105.453 1 30 10 283
1983193N11256 1983 33 EP MM ERICK 1983-07-12 21:00:00 TS 10.9745 -105.993 main 860 853 P_________P___ EP051983 10.9624 -106.000 TD 32 -1 11.0106 -105.971 1 32 11 291
1983193N11256 1983 33 EP MM ERICK 1983-07-13 00:00:00 TS 11.2000 -106.500 35 hurdat_epa main 857 849 O_________O___ hurdat_epa EP051983 11.2000 -106.500 TS 35 0 11.2000 -106.500 2 35 11 297
1983193N11256 1983 33 EP MM ERICK 1983-07-13 03:00:00 TS 11.4698 -106.992 main 849 843 P_________P___ EP051983 11.4849 -106.993 TS 37 0 11.4247 -106.990 2 37 11 300
1983193N11256 1983 33 EP MM ERICK 1983-07-13 06:00:00 TS 11.7754 -107.498 40 hurdat_epa main 844 840 O_________P___ hurdat_epa EP051983 11.8000 -107.500 TS 40 0 11.7016 -107.491 2 40 12 301
1983193N11256 1983 33 EP MM ERICK 1983-07-13 09:00:00 TS 12.0705 -108.021 main 845 845 P_________P___ EP051983 12.0848 -108.020 TS 42 0 12.0277 -108.022 2 42 12 300
1983193N11256 1983 33 EP MM ERICK 1983-07-13 12:00:00 TS 12.4000 -108.600 45 hurdat_epa main 857 855 O_________O___ hurdat_epa EP051983 12.4000 -108.600 TS 45 0 12.4000 -108.600 2 45 14 300
1983193N11256 1983 33 EP MM ERICK 1983-07-13 15:00:00 TS 12.7782 -109.273 main 862 859 P_________P___ EP051983 12.7700 -109.278 TS 47 0 12.8030 -109.258 2 47 16 301
1983193N11256 1983 33 EP MM ERICK 1983-07-13 18:00:00 TS 13.2120 -109.991 50 hurdat_epa main 871 867 O_________P___ hurdat_epa EP051983 13.2000 -110.000 TS 50 0 13.2478 -109.963 2 50 17 303
1983193N11256 1983 33 EP MM ERICK 1983-07-13 21:00:00 TS 13.6933 -110.697 main 880 879 P_________P___ EP051983 13.6848 -110.700 TS 52 0 13.7186 -110.686 2 52 17 306
1983193N11256 1983 33 EP MM ERICK 1983-07-14 00:00:00 TS 14.2000 -111.400 55 hurdat_epa main 894 894 O_________O___ hurdat_epa EP051983 14.2000 -111.400 TS 55 0 14.2000 -111.400 2 55 17 306
1983193N11256 1983 33 EP MM ERICK 1983-07-14 03:00:00 TS 14.7015 -112.108 main 913 910 P_________P___ EP051983 14.7074 -112.115 TS 55 0 14.6837 -112.085 2 55 17 306
1983193N11256 1983 33 EP MM ERICK 1983-07-14 06:00:00 TS 15.1930 -112.788 55 hurdat_epa main 910 886 O_________P___ hurdat_epa EP051983 15.2000 -112.800 TS 55 0 15.1721 -112.753 2 55 16 307
1983193N11256 1983 33 EP MM ERICK 1983-07-14 09:00:00 TS 15.6610 -113.421 main 880 863 P_________P___ EP051983 15.6648 -113.430 TS 55 0 15.6494 -113.394 2 55 15 308
1983193N11256 1983 33 EP MM ERICK 1983-07-14 12:00:00 TS 16.1000 -114.000 55 hurdat_epa main 868 855 O_________O___ hurdat_epa EP051983 16.1000 -114.000 TS 55 0 16.1000 -114.000 2 55 14 309
1983193N11256 1983 33 EP MM ERICK 1983-07-14 15:00:00 TS 16.5159 -114.525 main 856 846 P_________P___ EP051983 16.5147 -114.508 TS 55 0 16.5193 -114.578 2 55 13 309
1983193N11256 1983 33 EP MM ERICK 1983-07-14 18:00:00 TS 16.9023 -115.030 55 hurdat_epa main 850 848 O_________P___ hurdat_epa EP051983 16.9000 -115.000 TS 55 0 16.9092 -115.118 2 55 13 307
1983193N11256 1983 33 EP MM ERICK 1983-07-14 21:00:00 TS 17.2605 -115.574 main 856 855 P_________P___ EP051983 17.2575 -115.558 TS 55 0 17.2695 -115.625 2 55 12 304
1983193N11256 1983 33 EP MM ERICK 1983-07-15 00:00:00 TS 17.6000 -116.100 55 hurdat_epa main 869 869 O_________O___ hurdat_epa EP051983 17.6000 -116.100 TS 55 0 17.6000 -116.100 2 55 12 306
1983193N11256 1983 33 EP MM ERICK 1983-07-15 03:00:00 TS 17.9591 -116.567 main 878 873 P_________P___ EP051983 17.9723 -116.573 TS 50 0 17.9193 -116.550 2 50 11 309
1983193N11256 1983 33 EP MM ERICK 1983-07-15 06:00:00 TS 18.2773 -116.993 45 hurdat_epa main 876 873 O_________P___ hurdat_epa EP051983 18.3000 -117.000 TS 45 0 18.2091 -116.973 2 45 10 305
1983193N11256 1983 33 EP MM ERICK 1983-07-15 09:00:00 TS 18.5034 -117.396 main 883 880 P_________P___ EP051983 18.5148 -117.400 TS 40 0 18.4693 -117.385 2 40 9 299
1983193N11256 1983 33 EP MM ERICK 1983-07-15 12:00:00 TS 18.7000 -117.800 35 hurdat_epa main 892 890 O_________O___ hurdat_epa EP051983 18.7000 -117.800 TS 35 0 18.7000 -117.800 2 35 9 299
1983193N11256 1983 33 EP MM ERICK 1983-07-15 15:00:00 TS 18.9547 -118.246 main 895 895 P_________P___ EP051983 18.9649 -118.242 TS 32 -1 18.9240 -118.255 2 32 10 299
1983193N11256 1983 33 EP MM ERICK 1983-07-15 18:00:00 TS 19.1794 -118.704 30 hurdat_epa main 916 916 O_________P___ hurdat_epa EP051983 19.2000 -118.700 TD 30 -1 19.1175 -118.715 2 30 9 293
1983193N11256 1983 33 EP MM ERICK 1983-07-15 21:00:00 TS 19.3167 -119.160 main 947 947 P_________P___ EP051983 19.3299 -119.158 TD 27 -1 19.2772 -119.167 2 27 9 285
1983193N11256 1983 33 EP MM ERICK 1983-07-16 00:00:00 TS 19.4000 -119.600 25 hurdat_epa main 971 971 O_________O___ hurdat_epa EP051983 19.4000 -119.600 TD 25 -1 19.4000 -119.600 1 25 8 280
1983193N11256 1983 33 EP MM ERICK 1983-07-16 03:00:00 TS 19.4640 -120.009 main 997 997 P_________P___ EP051983 19.4574 -120.015 TD 25 -1 19.4836 -119.990 1 25 8 278
1983193N11256 1983 33 EP MM ERICK 1983-07-16 06:00:00 TS 19.5084 -120.390 25 hurdat_epa main 1030 1030 O_________P___ hurdat_epa EP051983 19.5000 -120.400 TD 25 -1 19.5335 -120.361 1 25 7 277
1983193N11256 1983 33 EP MM ERICK 1983-07-16 09:00:00 TS 19.5540 -120.744 main 1049 1049 P_________P___ EP051983 19.5498 -120.750 TD 25 -1 19.5667 -120.726 1 25 7 278
1983193N11256 1983 33 EP MM ERICK 1983-07-16 12:00:00 TS 19.6000 -121.100 25 hurdat_epa main 1084 1084 O_________O___ hurdat_epa EP051983 19.6000 -121.100 TD 25 -1 19.6000 -121.100 1 25 7 278
1983193N11256 1983 33 EP MM ERICK 1983-07-16 15:00:00 TS 19.6492 -121.489 main 1115 1107 P_________P___ EP051983 19.6502 -121.487 TD 22 -1 19.6460 -121.494 1 22 8 278
1983193N11256 1983 33 EP MM ERICK 1983-07-16 18:00:00 TS 19.7000 -121.900 20 hurdat_epa main 1134 O_________O___ hurdat_epa EP051983 19.7000 -121.900 TD 20 -1 19.7000 -121.900 1 20 8 277

IBTrACS Databaseについて

本データベースは、米国NOAAが公開する1842年以降の世界の熱帯低気圧のベストトラックデータアーカイブInternational Best Track Archive for Climate Stewardship (IBTrACS)を、ウェブで閲覧しやすい形式に変換したものです。

最終更新日:2021-10-08